Time;durP1;ratioP1;P1;durP2;ratioP2;P2;SDS_P1;SDS_P2;PMS_P1;PMS_P2;Temp;Humidity;BMP_temperature;BMP_pressure;BME280_temperature;BME280_humidity;BME280_pressure;Samples;Min_cycle;Max_cycle;Signal;HPM_P1;HPM_P2
2021/08/26 00:00:17;;;;;;;5.00;0.90;;;16.50;99.90;;;;;;5029439;28;21541;-77
2021/08/26 00:05:50;;;;;;;3.33;0.70;;;16.50;99.90;;;;;;4997690;28;20038;-75
2021/08/26 00:08:19;;;;;;;3.70;0.50;;;16.50;99.90;;;;;;4984146;28;20057;-75
2021/08/26 00:10:46;;;;;;;3.08;0.70;;;16.50;99.90;;;;;;5030023;28;20076;-75
2021/08/26 00:13:16;;;;;;;1.42;0.57;;;16.50;99.90;;;;;;5045025;28;20045;-75
2021/08/26 00:15:43;;;;;;;2.58;0.80;;;16.40;99.90;;;;;;5044625;28;20507;-75
2021/08/26 00:18:10;;;;;;;2.67;0.50;;;16.50;99.90;;;;;;5043918;28;20051;-76
2021/08/26 00:20:37;;;;;;;2.90;0.70;;;16.50;99.90;;;;;;5045543;28;20043;-75
2021/08/26 00:23:04;;;;;;;2.60;0.50;;;16.50;99.90;;;;;;5044400;28;20043;-75
2021/08/26 00:25:30;;;;;;;3.08;0.60;;;16.50;99.90;;;;;;5027325;28;20041;-75
2021/08/26 00:27:57;;;;;;;3.95;0.68;;;16.50;99.90;;;;;;5061189;28;20036;-74
2021/08/26 00:30:23;;;;;;;2.22;0.70;;;16.50;99.90;;;;;;5045446;28;20036;-75
2021/08/26 00:32:50;;;;;;;4.57;0.70;;;16.50;99.90;;;;;;5062239;28;20372;-75
2021/08/26 00:35:16;;;;;;;1.58;0.60;;;16.50;99.90;;;;;;5062966;28;20056;-75
2021/08/26 00:37:43;;;;;;;1.65;0.60;;;16.40;99.90;;;;;;5042884;28;20055;-75
2021/08/26 00:40:09;;;;;;;2.58;0.75;;;16.50;99.90;;;;;;5069545;28;20040;-75
2021/08/26 00:42:37;;;;;;;2.88;0.70;;;16.40;99.90;;;;;;5051599;28;20033;-75
2021/08/26 00:45:07;;;;;;;3.17;0.75;;;16.50;99.90;;;;;;5070962;28;20038;-75
2021/08/26 00:47:35;;;;;;;1.85;0.70;;;16.40;99.90;;;;;;5073616;28;20041;-75
2021/08/26 00:50:02;;;;;;;1.48;0.50;;;16.40;99.90;;;;;;5071280;28;20063;-75
2021/08/26 00:52:28;;;;;;;3.40;0.65;;;16.40;99.90;;;;;;5034290;28;20407;-75
2021/08/26 00:54:55;;;;;;;4.88;0.90;;;16.40;99.90;;;;;;5035913;28;20032;-75
2021/08/26 00:57:24;;;;;;;3.88;1.10;;;16.50;99.90;;;;;;5048598;28;20031;-75
2021/08/26 00:59:54;;;;;;;1.75;0.60;;;16.50;99.90;;;;;;5050273;28;20049;-75
2021/08/26 01:02:31;;;;;;;2.28;0.90;;;16.50;99.90;;;;;;5060896;28;20494;-75
2021/08/26 01:05:17;;;;;;;1.85;0.65;;;16.50;99.90;;;;;;5048879;28;20158;-75
2021/08/26 01:07:53;;;;;;;3.42;0.60;;;16.50;99.90;;;;;;5052159;28;20046;-75
2021/08/26 01:10:22;;;;;;;1.77;0.70;;;16.50;99.90;;;;;;5040581;28;20036;-75
2021/08/26 01:12:53;;;;;;;3.53;1.10;;;16.60;99.90;;;;;;5070489;28;20506;-75
2021/08/26 01:15:19;;;;;;;1.67;0.60;;;16.60;99.90;;;;;;5043380;28;20044;-75
2021/08/26 01:17:46;;;;;;;2.63;0.70;;;16.60;99.90;;;;;;5076576;28;20380;-75
2021/08/26 01:20:13;;;;;;;5.03;0.73;;;16.60;99.90;;;;;;5076206;28;20051;-75
2021/08/26 01:22:41;;;;;;;4.07;1.00;;;16.60;99.90;;;;;;5035088;28;20683;-75
2021/08/26 01:25:12;;;;;;;3.55;0.90;;;16.60;99.90;;;;;;5054571;28;20510;-75
2021/08/26 01:28:03;;;;;;;3.15;0.80;;;16.60;99.90;;;;;;5075191;28;20373;-75
2021/08/26 01:30:37;;;;;;;3.25;0.73;;;16.60;99.90;;;;;;5067690;28;20035;-75
2021/08/26 01:33:05;;;;;;;3.47;0.90;;;16.60;99.90;;;;;;5072158;28;20339;-75
2021/08/26 01:35:31;;;;;;;4.15;0.80;;;16.60;99.90;;;;;;5054979;28;20047;-75
2021/08/26 01:37:58;;;;;;;3.85;0.90;;;16.60;99.90;;;;;;5071090;28;20040;-75
2021/08/26 01:40:52;;;;;;;2.42;0.65;;;16.60;99.90;;;;;;5082324;28;20518;-75
2021/08/26 01:43:23;;;;;;;4.38;1.20;;;16.60;99.90;;;;;;5082818;28;20044;-75
2021/08/26 01:45:50;;;;;;;4.40;1.15;;;16.60;99.90;;;;;;5067740;28;20043;-75
2021/08/26 01:48:20;;;;;;;4.85;1.20;;;16.60;99.90;;;;;;5084806;28;20054;-75
2021/08/26 01:50:49;;;;;;;6.18;1.00;;;16.50;99.90;;;;;;5068224;28;20047;-75
2021/08/26 01:53:17;;;;;;;4.07;0.95;;;16.50;99.90;;;;;;5050609;28;20494;-75
2021/08/26 01:55:45;;;;;;;4.22;1.00;;;16.50;99.90;;;;;;5085920;28;20383;-75
2021/08/26 01:58:12;;;;;;;5.03;1.10;;;16.50;99.90;;;;;;5065185;28;20044;-75
2021/08/26 02:00:39;;;;;;;5.18;1.10;;;16.50;99.90;;;;;;5085842;28;20049;-75
2021/08/26 02:03:06;;;;;;;4.70;0.93;;;16.50;99.90;;;;;;5063593;28;20036;-75
2021/08/26 02:05:32;;;;;;;8.13;1.30;;;16.40;99.90;;;;;;5067744;28;20024;-75
2021/08/26 02:07:59;;;;;;;8.25;1.95;;;16.40;99.90;;;;;;5066123;28;20039;-75
2021/08/26 02:10:25;;;;;;;6.35;1.20;;;16.40;99.90;;;;;;5067346;28;20051;-75
2021/08/26 02:12:52;;;;;;;6.63;1.52;;;16.40;99.90;;;;;;5068219;28;20415;-76
2021/08/26 02:15:19;;;;;;;7.10;1.58;;;16.40;99.90;;;;;;5066630;28;20044;-75
2021/08/26 02:17:46;;;;;;;7.95;1.65;;;16.30;99.90;;;;;;5064258;28;20051;-75
2021/08/26 02:20:13;;;;;;;6.97;1.67;;;16.30;99.90;;;;;;5085264;28;20028;-75
2021/08/26 02:22:40;;;;;;;9.15;1.58;;;16.30;99.90;;;;;;5066734;28;20039;-75
2021/08/26 02:25:07;;;;;;;10.30;1.90;;;16.30;99.90;;;;;;5083634;28;20032;-75
2021/08/26 02:27:34;;;;;;;7.95;1.65;;;16.20;99.90;;;;;;5082526;28;20025;-75
2021/08/26 02:30:00;;;;;;;6.47;1.83;;;16.10;99.90;;;;;;5067292;28;20036;-75
2021/08/26 02:32:29;;;;;;;7.47;1.90;;;16.10;99.90;;;;;;5068933;28;20364;-75
2021/08/26 02:34:59;;;;;;;7.85;3.00;;;16.10;99.90;;;;;;5051720;28;20036;-75
2021/08/26 02:37:26;;;;;;;10.80;2.95;;;16.10;99.90;;;;;;5066893;28;20035;-74
2021/08/26 02:39:52;;;;;;;8.70;2.78;;;16.10;99.90;;;;;;5066540;28;20815;-74
2021/08/26 02:42:19;;;;;;;9.43;2.65;;;16.10;99.90;;;;;;5085239;28;20479;-75
2021/08/26 02:44:46;;;;;;;10.90;1.45;;;16.10;99.90;;;;;;5084679;28;20042;-76
2021/08/26 02:47:12;;;;;;;8.63;1.75;;;16.10;99.90;;;;;;5064800;28;20035;-75
2021/08/26 02:49:38;;;;;;;10.00;2.25;;;16.10;99.90;;;;;;5066624;28;20028;-75
2021/08/26 02:52:05;;;;;;;11.85;2.67;;;16.10;99.90;;;;;;5052127;28;20040;-74
2021/08/26 02:54:32;;;;;;;9.85;1.85;;;16.10;99.90;;;;;;5063215;28;20043;-75
2021/08/26 02:56:58;;;;;;;9.15;1.92;;;16.00;99.90;;;;;;5065082;28;20044;-75
2021/08/26 02:59:25;;;;;;;10.93;2.10;;;16.00;99.90;;;;;;5084188;28;20047;-75
2021/08/26 03:01:51;;;;;;;10.05;1.70;;;16.00;99.90;;;;;;5064023;28;20572;-75
2021/08/26 03:04:17;;;;;;;8.77;2.13;;;15.90;99.90;;;;;;5066274;28;21088;-75
2021/08/26 03:06:44;;;;;;;10.45;2.20;;;15.90;99.90;;;;;;5049266;28;20036;-75
2021/08/26 03:09:10;;;;;;;11.20;2.60;;;15.90;99.90;;;;;;5066161;28;20040;-75
2021/08/26 03:11:36;;;;;;;11.45;2.35;;;15.90;99.90;;;;;;5083524;28;20091;-75
2021/08/26 03:14:03;;;;;;;11.88;2.13;;;15.90;99.90;;;;;;5049390;28;20044;-75
2021/08/26 03:16:29;;;;;;;11.60;2.28;;;15.90;99.90;;;;;;5048328;28;20036;-75
2021/08/26 03:18:56;;;;;;;15.52;3.13;;;15.90;99.90;;;;;;5084106;28;20380;-75
2021/08/26 03:21:22;;;;;;;10.63;2.58;;;15.80;99.90;;;;;;5083980;28;20032;-75
2021/08/26 03:23:48;;;;;;;11.02;2.25;;;15.80;99.90;;;;;;5049870;28;20043;-74
2021/08/26 03:26:15;;;;;;;13.85;3.30;;;15.80;99.90;;;;;;5031808;28;20055;-75
2021/08/26 03:28:41;;;;;;;10.13;2.20;;;15.70;99.90;;;;;;5047626;28;20296;-74
2021/08/26 03:31:08;;;;;;;13.82;2.80;;;15.70;99.90;;;;;;5066115;28;20051;-75
2021/08/26 03:33:34;;;;;;;10.18;2.35;;;15.70;99.90;;;;;;5064043;28;20039;-75
2021/08/26 03:36:01;;;;;;;10.73;2.50;;;15.70;99.90;;;;;;5064755;28;20054;-75
2021/08/26 03:38:27;;;;;;;8.65;2.08;;;15.70;99.90;;;;;;5081850;28;20055;-74
2021/08/26 03:40:54;;;;;;;15.27;3.28;;;15.70;99.90;;;;;;5066124;28;20043;-74
2021/08/26 03:43:20;;;;;;;14.60;3.67;;;15.60;99.90;;;;;;5081646;28;20045;-75
2021/08/26 03:45:48;;;;;;;9.00;2.05;;;15.60;99.90;;;;;;5083704;28;20049;-74
2021/08/26 03:48:15;;;;;;;15.18;3.10;;;15.60;99.90;;;;;;5063984;28;20047;-74
2021/08/26 03:50:41;;;;;;;11.38;2.20;;;15.60;99.90;;;;;;5065544;28;20048;-74
2021/08/26 03:53:08;;;;;;;9.77;2.35;;;15.50;99.90;;;;;;5081501;28;20042;-75
2021/08/26 03:55:34;;;;;;;12.20;2.53;;;15.50;99.90;;;;;;5065584;28;20051;-75
2021/08/26 03:58:01;;;;;;;9.18;2.20;;;15.50;99.90;;;;;;5029122;28;20040;-75
2021/08/26 04:00:27;;;;;;;11.88;2.33;;;15.50;99.90;;;;;;5049416;28;20364;-75
2021/08/26 04:02:53;;;;;;;9.70;2.40;;;15.60;99.90;;;;;;5065304;28;20039;-75
2021/08/26 04:05:20;;;;;;;14.80;2.28;;;15.60;99.90;;;;;;5083423;28;20040;-75
2021/08/26 04:07:46;;;;;;;10.23;2.25;;;15.60;99.90;;;;;;5064469;28;20043;-75
2021/08/26 04:10:13;;;;;;;13.82;2.45;;;15.60;99.90;;;;;;5065497;28;20032;-74
2021/08/26 04:12:39;;;;;;;8.25;2.30;;;15.60;99.90;;;;;;5050551;28;20052;-75
2021/08/26 04:15:06;;;;;;;9.38;2.65;;;15.50;99.90;;;;;;5083677;28;20036;-74
2021/08/26 04:17:33;;;;;;;9.60;2.53;;;15.60;99.90;;;;;;5082340;28;20047;-74
2021/08/26 04:19:59;;;;;;;11.38;2.72;;;15.60;99.90;;;;;;5082601;28;20047;-74
2021/08/26 04:22:25;;;;;;;10.63;2.58;;;15.50;99.90;;;;;;5065365;28;20032;-74
2021/08/26 04:24:52;;;;;;;12.82;2.83;;;15.50;99.90;;;;;;5082070;28;20024;-74
2021/08/26 04:27:18;;;;;;;11.65;2.92;;;15.50;99.90;;;;;;5081228;28;20024;-74
2021/08/26 04:29:44;;;;;;;12.23;3.28;;;15.50;99.90;;;;;;5081683;28;20040;-75
2021/08/26 04:32:11;;;;;;;12.85;3.42;;;15.50;99.90;;;;;;5065073;28;20039;-75
2021/08/26 04:34:37;;;;;;;11.60;2.90;;;15.50;99.90;;;;;;5016504;28;20040;-74
2021/08/26 04:37:04;;;;;;;12.80;2.70;;;15.50;99.90;;;;;;5064290;28;20493;-74
2021/08/26 04:39:30;;;;;;;9.73;2.80;;;15.50;99.90;;;;;;5064780;28;20047;-74
2021/08/26 04:41:56;;;;;;;9.48;1.75;;;15.50;99.90;;;;;;5082881;28;20434;-74
2021/08/26 04:44:23;;;;;;;14.50;3.28;;;15.50;99.90;;;;;;5088145;28;20027;-74
2021/08/26 04:46:49;;;;;;;10.20;1.83;;;15.50;99.90;;;;;;5087156;28;20268;-74
2021/08/26 04:49:15;;;;;;;12.45;2.70;;;15.40;99.90;;;;;;5059998;28;20036;-74
2021/08/26 04:51:42;;;;;;;9.60;2.03;;;15.40;99.90;;;;;;5087304;28;20051;-74
2021/08/26 04:54:09;;;;;;;13.32;2.55;;;15.40;99.90;;;;;;5069283;28;20517;-74
2021/08/26 04:56:35;;;;;;;15.02;2.22;;;15.40;99.90;;;;;;5086132;28;20032;-74
2021/08/26 04:59:03;;;;;;;13.20;2.22;;;15.40;99.90;;;;;;5068912;28;20051;-74
2021/08/26 05:01:29;;;;;;;12.35;2.00;;;15.40;99.90;;;;;;5069477;28;20027;-74
2021/08/26 05:03:56;;;;;;;10.93;1.88;;;15.30;99.90;;;;;;5087283;28;20036;-74
2021/08/26 05:06:23;;;;;;;9.20;1.67;;;15.40;99.90;;;;;;5084733;28;20607;-74
2021/08/26 05:08:49;;;;;;;10.85;1.85;;;15.40;99.90;;;;;;5085619;28;20363;-74
2021/08/26 05:11:19;;;;;;;11.85;2.47;;;15.30;99.90;;;;;;5070918;28;20044;-74
2021/08/26 05:13:47;;;;;;;10.55;2.00;;;15.30;99.90;;;;;;5051086;28;20055;-74
2021/08/26 05:16:13;;;;;;;9.57;2.33;;;15.40;99.90;;;;;;5051132;28;20060;-74
2021/08/26 05:18:40;;;;;;;6.90;1.58;;;15.30;99.90;;;;;;5066389;28;20387;-74
2021/08/26 05:21:06;;;;;;;11.13;2.35;;;15.30;99.90;;;;;;5067824;28;20040;-74
2021/08/26 05:23:34;;;;;;;5.75;1.50;;;15.30;99.90;;;;;;5065594;28;20039;-74
2021/08/26 05:26:03;;;;;;;9.25;1.60;;;15.30;99.90;;;;;;5085002;28;20031;-74
2021/08/26 05:28:29;;;;;;;16.55;1.88;;;15.30;99.90;;;;;;5081181;28;20036;-74
2021/08/26 05:30:56;;;;;;;11.73;1.83;;;15.30;99.90;;;;;;5086359;28;20028;-74
2021/08/26 05:33:22;;;;;;;12.57;1.65;;;15.40;99.90;;;;;;5083006;28;20040;-74
2021/08/26 05:35:49;;;;;;;17.65;2.30;;;15.50;99.90;;;;;;5085277;28;20036;-75
2021/08/26 05:38:15;;;;;;;13.07;1.92;;;15.50;99.90;;;;;;5082271;28;20036;-75
2021/08/26 05:40:41;;;;;;;11.82;1.80;;;15.50;99.90;;;;;;5067427;28;20399;-77
2021/08/26 05:43:08;;;;;;;11.38;2.05;;;15.60;99.90;;;;;;5052212;28;20055;-75
2021/08/26 05:45:34;;;;;;;10.80;2.10;;;15.60;99.90;;;;;;5067933;28;20408;-78
2021/08/26 05:48:01;;;;;;;7.43;1.77;;;15.60;99.90;;;;;;5083424;28;20036;-76
2021/08/26 05:50:27;;;;;;;10.02;1.88;;;15.60;99.90;;;;;;5068643;28;20036;-75
2021/08/26 05:52:54;;;;;;;11.90;2.17;;;15.70;99.90;;;;;;5081835;28;20043;-76
2021/08/26 05:55:20;;;;;;;11.15;1.95;;;15.70;99.90;;;;;;5084393;28;20028;-75
2021/08/26 05:57:47;;;;;;;9.18;2.28;;;15.80;99.90;;;;;;5064825;28;20074;-75
2021/08/26 06:00:14;;;;;;;11.70;2.70;;;15.80;99.90;;;;;;5066953;28;20048;-75
2021/08/26 06:02:40;;;;;;;11.98;2.38;;;15.80;99.90;;;;;;5084815;28;20420;-76
2021/08/26 06:05:11;;;;;;;13.10;1.98;;;15.90;99.90;;;;;;5085966;28;20024;-75
2021/08/26 06:07:38;;;;;;;10.63;3.05;;;15.80;99.90;;;;;;5034114;28;20044;-74
2021/08/26 06:10:06;;;;;;;8.90;2.03;;;15.80;99.90;;;;;;5067254;28;20055;-74
2021/08/26 06:12:33;;;;;;;7.97;1.33;;;15.80;99.90;;;;;;5085446;28;20502;-74
2021/08/26 06:15:02;;;;;;;8.40;1.30;;;15.90;99.90;;;;;;5085364;28;20043;-75
2021/08/26 06:17:28;;;;;;;9.60;1.48;;;16.00;99.90;;;;;;5064967;28;20036;-76
2021/08/26 06:19:55;;;;;;;6.18;1.08;;;16.00;99.90;;;;;;5065526;28;20055;-74
2021/08/26 06:22:21;;;;;;;6.43;1.20;;;16.10;99.90;;;;;;5085482;28;20024;-74
2021/08/26 06:24:48;;;;;;;6.75;1.00;;;16.20;99.90;;;;;;5085192;28;20028;-74
2021/08/26 06:27:14;;;;;;;10.68;1.92;;;16.20;99.90;;;;;;5050181;28;20463;-74
2021/08/26 06:29:41;;;;;;;9.80;1.38;;;16.20;99.90;;;;;;5045319;28;20134;-75
2021/08/26 06:32:07;;;;;;;6.95;1.00;;;16.20;99.90;;;;;;5065066;28;20040;-73
2021/08/26 06:34:44;;;;;;;6.82;1.00;;;16.10;99.90;;;;;;5038845;28;20028;-75
2021/08/26 06:37:10;;;;;;;12.60;1.77;;;16.20;99.90;;;;;;5066014;28;20365;-79
2021/08/26 06:39:37;;;;;;;7.72;1.52;;;16.20;99.90;;;;;;5064327;28;20047;-77
2021/08/26 06:42:04;;;;;;;10.70;1.30;;;16.20;99.90;;;;;;5061470;28;20028;-77
2021/08/26 06:44:33;;;;;;;12.52;2.00;;;16.30;99.90;;;;;;5083466;28;20040;-76
2021/08/26 06:47:00;;;;;;;9.27;3.25;;;16.40;99.90;;;;;;5065404;28;20039;-76
2021/08/26 06:49:26;;;;;;;9.40;2.08;;;16.50;99.90;;;;;;5057686;28;20044;-74
2021/08/26 06:51:53;;;;;;;8.05;1.38;;;16.60;99.90;;;;;;5057827;28;20078;-74
2021/08/26 06:54:19;;;;;;;8.35;0.80;;;16.70;99.90;;;;;;5048604;28;20048;-74
2021/08/26 06:56:45;;;;;;;10.60;1.83;;;16.70;99.90;;;;;;5079280;28;20045;-75
2021/08/26 06:59:12;;;;;;;17.60;1.58;;;16.80;99.90;;;;;;5077643;28;20506;-75
2021/08/26 07:01:38;;;;;;;10.82;1.60;;;16.70;99.90;;;;;;5063902;28;20475;-74
2021/08/26 07:04:05;;;;;;;10.27;2.03;;;16.70;99.90;;;;;;5082268;28;20506;-74
2021/08/26 07:06:31;;;;;;;4.55;0.93;;;16.60;99.90;;;;;;5061091;28;20045;-75
2021/08/26 07:08:58;;;;;;;5.38;1.10;;;16.50;99.90;;;;;;5046035;28;20037;-76
2021/08/26 07:11:24;;;;;;;8.30;1.45;;;16.40;99.90;;;;;;5077836;28;20539;-75
2021/08/26 07:13:51;;;;;;;5.43;1.00;;;16.30;99.90;;;;;;5080269;28;20040;-75
2021/08/26 07:16:17;;;;;;;6.75;0.90;;;16.20;99.90;;;;;;5080941;28;20383;-75
2021/08/26 07:18:43;;;;;;;6.47;1.10;;;16.30;99.90;;;;;;5044871;28;20050;-75
2021/08/26 07:21:10;;;;;;;5.55;1.00;;;16.60;99.90;;;;;;5045552;28;20039;-74
2021/08/26 07:23:36;;;;;;;6.50;1.00;;;16.80;99.90;;;;;;5061313;28;20032;-75
2021/08/26 07:26:03;;;;;;;6.60;1.77;;;17.00;99.90;;;;;;5077497;28;20032;-75
2021/08/26 07:28:30;;;;;;;5.22;1.50;;;17.20;99.90;;;;;;5044616;28;20478;-75
2021/08/26 07:30:57;;;;;;;5.78;1.42;;;17.40;99.90;;;;;;5081594;28;20032;-75
2021/08/26 07:33:24;;;;;;;4.47;1.30;;;17.50;99.90;;;;;;5059938;28;20483;-75
2021/08/26 07:35:51;;;;;;;5.60;0.90;;;17.50;99.90;;;;;;5045011;28;20040;-75
2021/08/26 07:38:17;;;;;;;7.03;1.10;;;17.60;99.90;;;;;;5043824;28;20417;-78
2021/08/26 07:40:44;;;;;;;4.72;1.00;;;17.60;99.90;;;;;;5061210;28;20052;-75
2021/08/26 07:43:10;;;;;;;5.22;1.10;;;17.50;99.90;;;;;;5075596;28;20024;-75
2021/08/26 07:45:37;;;;;;;6.65;0.80;;;17.50;99.90;;;;;;5077977;28;20031;-77
2021/08/26 07:48:03;;;;;;;9.05;1.90;;;17.40;99.90;;;;;;5058812;28;20099;-74
2021/08/26 07:50:30;;;;;;;5.25;0.88;;;17.40;99.90;;;;;;5060711;28;20490;-74
2021/08/26 07:52:56;;;;;;;8.40;1.13;;;17.40;99.90;;;;;;5059337;28;20356;-77
2021/08/26 07:55:23;;;;;;;7.88;1.17;;;17.50;99.90;;;;;;5047175;28;20082;-75
2021/08/26 07:57:49;;;;;;;7.18;1.27;;;17.50;99.90;;;;;;5060641;28;20035;-74
2021/08/26 08:00:15;;;;;;;5.43;1.75;;;17.50;99.90;;;;;;5079751;28;20055;-74
2021/08/26 08:02:42;;;;;;;5.50;1.58;;;17.50;99.90;;;;;;5062639;28;20032;-74
2021/08/26 08:05:09;;;;;;;4.80;1.33;;;17.60;99.90;;;;;;5080043;28;20043;-76
2021/08/26 08:07:38;;;;;;;6.70;1.25;;;17.70;99.90;;;;;;5081138;28;20032;-76
2021/08/26 08:10:05;;;;;;;7.47;1.10;;;17.70;99.90;;;;;;5081279;28;20055;-76
2021/08/26 08:12:31;;;;;;;7.25;1.50;;;17.80;99.90;;;;;;5049335;28;20040;-76
2021/08/26 08:14:58;;;;;;;6.15;1.10;;;17.80;99.90;;;;;;5083112;28;20036;-76
2021/08/26 08:17:24;;;;;;;6.65;0.98;;;18.00;99.90;;;;;;5046796;28;20527;-76
2021/08/26 08:19:50;;;;;;;7.15;1.02;;;18.20;99.90;;;;;;5047197;28;20042;-76
2021/08/26 08:22:17;;;;;;;9.93;1.20;;;18.40;99.90;;;;;;5081098;28;20039;-76
2021/08/26 08:24:43;;;;;;;5.47;1.23;;;18.30;99.90;;;;;;5083017;28;20043;-76
2021/08/26 08:27:10;;;;;;;6.28;1.02;;;18.30;99.90;;;;;;5079943;28;20028;-76
2021/08/26 08:29:36;;;;;;;7.30;1.40;;;18.40;99.90;;;;;;5061228;28;20055;-76
2021/08/26 08:32:03;;;;;;;5.63;1.35;;;18.40;99.90;;;;;;5080232;28;20039;-75
2021/08/26 08:34:29;;;;;;;7.47;1.27;;;18.40;99.90;;;;;;5064360;28;20040;-76
2021/08/26 08:36:55;;;;;;;9.45;1.45;;;18.50;99.90;;;;;;5061011;28;20047;-75
2021/08/26 08:39:22;;;;;;;5.65;1.67;;;18.50;99.90;;;;;;5079474;28;20048;-75
2021/08/26 08:41:50;;;;;;;8.15;1.77;;;18.70;99.90;;;;;;5079970;28;20877;-75
2021/08/26 08:44:16;;;;;;;7.47;1.45;;;18.90;99.90;;;;;;5083075;28;20031;-75
2021/08/26 08:46:48;;;;;;;6.38;1.45;;;19.00;99.90;;;;;;5079367;28;20037;-75
2021/08/26 08:49:19;;;;;;;5.43;1.00;;;19.00;99.90;;;;;;5045417;28;20035;-76
2021/08/26 08:51:47;;;;;;;8.00;1.00;;;19.00;99.90;;;;;;5063068;28;20048;-75
2021/08/26 08:54:13;;;;;;;3.67;0.90;;;19.10;99.90;;;;;;5048455;28;20379;-75
2021/08/26 08:56:40;;;;;;;5.28;0.80;;;19.10;99.90;;;;;;5061930;28;20028;-75
2021/08/26 08:59:06;;;;;;;6.90;0.95;;;19.20;99.90;;;;;;5062320;28;20044;-75
2021/08/26 09:01:33;;;;;;;3.50;0.85;;;19.10;99.90;;;;;;5062889;28;20033;-75
2021/08/26 09:03:59;;;;;;;5.00;1.20;;;19.00;99.90;;;;;;5048569;28;20037;-75
2021/08/26 09:06:42;;;;;;;4.18;1.10;;;19.00;99.90;;;;;;5080063;28;20032;-75
2021/08/26 09:09:10;;;;;;;5.13;1.00;;;19.10;99.90;;;;;;5077669;28;20036;-75
2021/08/26 09:11:46;;;;;;;6.85;1.40;;;19.20;99.90;;;;;;5081292;28;20033;-75
2021/08/26 09:14:14;;;;;;;6.70;1.02;;;19.50;99.90;;;;;;5081017;28;20055;-75
2021/08/26 09:16:42;;;;;;;6.28;1.65;;;19.70;99.90;;;;;;5064726;28;20039;-75
2021/08/26 09:19:16;;;;;;;4.20;1.15;;;19.80;99.90;;;;;;5077894;28;20387;-75
2021/08/26 09:21:43;;;;;;;3.50;1.00;;;19.60;99.90;;;;;;5080745;28;20027;-75
2021/08/26 09:24:09;;;;;;;5.78;1.10;;;19.40;99.90;;;;;;5079889;28;20028;-75
2021/08/26 09:26:36;;;;;;;7.25;1.45;;;19.20;99.90;;;;;;5047153;28;20035;-75
2021/08/26 09:29:05;;;;;;;6.32;2.03;;;19.10;99.90;;;;;;5081064;28;20032;-75
2021/08/26 09:31:35;;;;;;;7.07;1.50;;;19.00;99.90;;;;;;5068258;28;20040;-75
2021/08/26 09:34:09;;;;;;;8.52;1.45;;;19.10;99.90;;;;;;5085201;28;20054;-75
2021/08/26 09:36:36;;;;;;;9.02;1.98;;;19.20;99.90;;;;;;5084755;28;20396;-75
2021/08/26 09:39:05;;;;;;;6.60;1.42;;;19.30;99.90;;;;;;5065982;28;20070;-75
2021/08/26 09:41:51;;;;;;;7.63;1.13;;;19.30;99.90;;;;;;5084662;28;20079;-75
2021/08/26 09:44:26;;;;;;;5.05;0.98;;;19.50;99.90;;;;;;5085050;28;20930;-75
2021/08/26 09:46:55;;;;;;;4.78;1.02;;;19.70;99.90;;;;;;5053853;28;20027;-75
2021/08/26 09:49:24;;;;;;;8.02;1.00;;;19.60;99.90;;;;;;5048585;28;20051;-75
2021/08/26 09:52:10;;;;;;;6.93;1.17;;;19.40;99.90;;;;;;5067917;28;20020;-74
2021/08/26 09:54:45;;;;;;;8.02;0.82;;;19.10;99.90;;;;;;5067253;28;20498;-74
2021/08/26 09:57:28;;;;;;;5.65;0.80;;;18.70;99.90;;;;;;5082693;28;20043;-74
2021/08/26 09:59:54;;;;;;;4.22;0.80;;;18.40;99.90;;;;;;5065854;28;20039;-74
2021/08/26 10:02:22;;;;;;;3.92;1.00;;;18.30;99.90;;;;;;5055134;28;20032;-74
2021/08/26 10:04:50;;;;;;;11.15;1.70;;;18.20;99.90;;;;;;5085498;28;20422;-74
2021/08/26 10:07:17;;;;;;;5.50;1.35;;;18.10;99.90;;;;;;5082616;28;20024;-75
2021/08/26 10:09:45;;;;;;;8.70;1.52;;;18.10;99.90;;;;;;5065595;28;20043;-74
2021/08/26 10:12:13;;;;;;;4.72;0.82;;;18.20;99.90;;;;;;5065111;28;20028;-73
2021/08/26 10:14:48;;;;;;;6.95;1.10;;;18.30;99.90;;;;;;5085046;28;20054;-74
2021/08/26 10:17:16;;;;;;;8.82;1.38;;;18.40;99.90;;;;;;5081263;28;20024;-73
2021/08/26 10:19:43;;;;;;;5.65;0.90;;;18.60;99.90;;;;;;5081694;28;20043;-77
2021/08/26 10:22:13;;;;;;;5.55;1.10;;;18.90;99.90;;;;;;5084913;28;20028;-74
2021/08/26 10:24:39;;;;;;;6.20;1.05;;;19.00;99.90;;;;;;5049681;28;20142;-74
2021/08/26 10:27:10;;;;;;;7.97;1.40;;;19.10;99.90;;;;;;5060696;28;20127;-75
2021/08/26 10:29:45;;;;;;;7.18;1.73;;;19.30;99.90;;;;;;5061330;28;20036;-75
2021/08/26 10:32:23;;;;;;;6.10;1.20;;;19.60;99.90;;;;;;5065332;28;20027;-74
2021/08/26 10:35:14;;;;;;;8.43;1.38;;;19.70;99.90;;;;;;5060854;28;20044;-75
2021/08/26 10:37:55;;;;;;;3.78;1.17;;;20.00;99.90;;;;;;5076397;28;20028;-76
2021/08/26 10:40:26;;;;;;;;;;;20.30;99.90;;;;;;5048779;28;20060;-75
2021/08/26 10:42:55;;;;;;;7.93;1.17;;;20.60;99.90;;;;;;5066686;28;19916;-76
2021/08/26 10:45:30;;;;;;;9.15;1.50;;;20.60;99.90;;;;;;5066119;28;20047;-76
2021/08/26 10:47:59;;;;;;;7.00;1.40;;;20.80;99.90;;;;;;5060838;28;20043;-76
2021/08/26 10:50:39;;;;;;;6.68;1.55;;;20.80;99.90;;;;;;5067259;28;20039;-76
2021/08/26 10:53:24;;;;;;;6.35;1.30;;;20.90;99.90;;;;;;5082577;28;20430;-76
2021/08/26 10:55:53;;;;;;;6.45;1.35;;;20.90;99.90;;;;;;5063721;28;20050;-76
2021/08/26 10:58:33;;;;;;;8.35;1.55;;;21.00;99.90;;;;;;5064516;28;20032;-76
2021/08/26 11:01:01;;;;;;;6.10;3.08;;;21.20;99.90;;;;;;5055317;28;20041;-77
2021/08/26 11:03:34;;;;;;;9.02;4.43;;;21.40;99.90;;;;;;5067883;28;20043;-76
2021/08/26 11:06:22;;;;;;;8.50;3.15;;;21.70;99.90;;;;;;5048786;28;20036;-77
2021/08/26 11:08:52;;;;;;;9.38;2.28;;;22.00;99.90;;;;;;5081552;28;20036;-76
2021/08/26 11:11:24;;;;;;;6.97;1.50;;;22.20;99.90;;;;;;5047352;28;20051;-78
2021/08/26 11:14:23;;;;;;;10.10;2.70;;;22.20;99.90;;;;;;5064979;28;20042;-76
2021/08/26 11:16:52;;;;;;;11.57;3.67;;;22.30;99.90;;;;;;5032714;28;20043;-77
2021/08/26 11:19:19;;;;;;;10.20;3.45;;;22.40;99.70;;;;;;5079732;28;20047;-77
2021/08/26 11:21:46;;;;;;;9.07;2.35;;;22.80;99.80;;;;;;5045444;28;20067;-78
2021/08/26 11:24:12;;;;;;;7.45;1.77;;;23.40;99.80;;;;;;5083671;28;20035;-77
2021/08/26 11:26:52;;;;;;;9.32;1.90;;;24.00;98.30;;;;;;5081927;28;20494;-77
2021/08/26 11:29:21;;;;;;;10.30;2.30;;;24.20;97.10;;;;;;5079900;28;20028;-75
2021/08/26 11:31:53;;;;;;;7.15;2.03;;;23.70;96.60;;;;;;5080189;28;20039;-75
2021/08/26 11:34:27;;;;;;;7.93;2.10;;;23.20;96.00;;;;;;5083177;28;20043;-74
2021/08/26 11:36:58;;;;;;;8.10;2.35;;;22.80;96.30;;;;;;5063182;28;20032;-74
2021/08/26 11:39:27;;;;;;;6.17;2.20;;;22.50;96.70;;;;;;5045937;28;20134;-74
2021/08/26 11:41:54;;;;;;;6.80;2.10;;;22.40;96.60;;;;;;5047585;28;20316;-75
2021/08/26 11:44:20;;;;;;;8.63;2.38;;;22.30;96.40;;;;;;5083531;28;20028;-74
2021/08/26 11:46:47;;;;;;;9.95;2.50;;;22.30;96.40;;;;;;5029761;28;20043;-74
2021/08/26 11:49:14;;;;;;;8.15;1.70;;;22.30;96.50;;;;;;5080778;28;20051;-75
2021/08/26 11:51:40;;;;;;;9.75;2.47;;;22.40;96.50;;;;;;5080735;28;20368;-74
2021/08/26 11:54:18;;;;;;;13.77;2.90;;;22.50;96.50;;;;;;5064737;28;20039;-76
2021/08/26 11:56:54;;;;;;;10.10;2.42;;;22.60;96.40;;;;;;5077911;28;20033;-77
2021/08/26 11:59:35;;;;;;;7.25;2.60;;;22.90;96.00;;;;;;5061480;28;20043;-75
2021/08/26 12:02:20;;;;;;;10.80;2.10;;;23.20;95.70;;;;;;5078065;28;20035;-75
2021/08/26 12:04:52;;;;;;;11.38;2.17;;;23.80;95.50;;;;;;5062463;28;20035;-75
2021/08/26 12:07:37;;;;;;;8.88;3.55;;;24.20;95.10;;;;;;5042114;28;20054;-75
2021/08/26 12:10:18;;;;;;;8.25;2.55;;;24.50;94.40;;;;;;5062112;28;20043;-76
2021/08/26 12:12:53;;;;;;;8.65;3.22;;;24.40;93.70;;;;;;5061023;28;20048;-75
2021/08/26 12:15:39;;;;;;;8.93;2.33;;;24.00;93.70;;;;;;5077275;28;20029;-76
2021/08/26 12:18:26;;;;;;;6.32;2.05;;;23.70;94.10;;;;;;5061086;28;20478;-76
2021/08/26 12:20:54;;;;;;;10.07;2.47;;;23.40;93.80;;;;;;5082022;28;20398;-76
2021/08/26 12:23:27;;;;;;;7.75;2.50;;;23.30;94.10;;;;;;5081334;28;20024;-76
2021/08/26 12:26:13;;;;;;;10.20;2.10;;;23.30;94.00;;;;;;5080249;28;20482;-76
2021/08/26 12:28:43;;;;;;;7.65;2.38;;;23.20;93.80;;;;;;5076286;28;20036;-77
2021/08/26 12:31:12;;;;;;;7.55;2.50;;;23.30;94.30;;;;;;5078480;28;20039;-75
2021/08/26 12:33:55;;;;;;;8.00;2.17;;;24.00;94.30;;;;;;5077892;28;20036;-76
2021/08/26 12:36:21;;;;;;;7.93;2.42;;;25.20;93.20;;;;;;5077769;28;20482;-75
2021/08/26 12:38:48;;;;;;;8.57;2.83;;;26.20;91.20;;;;;;5043149;28;20044;-76
2021/08/26 12:41:19;;;;;;;6.70;1.92;;;27.00;89.10;;;;;;5081313;28;20036;-76
2021/08/26 12:43:57;;;;;;;7.90;2.67;;;27.80;86.70;;;;;;5063986;28;20044;-75
2021/08/26 12:46:28;;;;;;;8.23;2.40;;;27.80;83.60;;;;;;5078515;28;20370;-76
2021/08/26 12:49:08;;;;;;;7.38;2.25;;;27.20;83.60;;;;;;5078833;28;20939;-77
2021/08/26 12:51:50;;;;;;;5.95;1.85;;;26.80;83.00;;;;;;5081347;28;20039;-77
2021/08/26 12:54:16;;;;;;;6.63;1.65;;;26.70;82.60;;;;;;5077857;28;20043;-76
2021/08/26 12:56:48;;;;;;;6.72;1.92;;;26.80;79.70;;;;;;5077378;28;20028;-77